Sweeney Granite Mountains, California Weather observations

Data are for 10 minute period ending at time listed.
 Day   Time   Solar   Ave.   Ave.  Ave.  Vector  Max.   Baro.   Total    
  of    of     Rad.   Air    Rel.  Wind   Wind   Wind  Press.  Precip.   
Year   Day            Temp.  Hum.  Speed  Dir.   Gust                    
2017   (PST)  Kw/m2    F      %     mph   deg.    mph    mb.     in.     
-------------------------------------------------------------------------
 112    6:10   0.16   64.9    17    0.7   197     1.9   869.8    0.00 
 112    6:20   0.17   66.4    18    1.8   291     4.1   870.1    0.00 
 112    6:30   0.19   65.4    17    2.9   292     6.7   870.3    0.00 
 112    6:40   0.26   66.7    14    4.1   307     7.3   870.3    0.00 
 112    6:50   0.29   68.3    14    2.5   335     6.9   870.4    0.00 
 112    7:00   0.31   70.5    13    2.4    54     4.7   870.5    0.00 
 112    7:10   0.35   68.8    14    2.9    83     6.8   870.7    0.00 
 112    7:20   0.41   68.6    14    5.1   123     8.5   870.7    0.00 
 112    7:30   0.45   68.7    14    2.7   134     6.0   870.8    0.00 
 112    7:40   0.49   70.0    14    2.6   186     5.1   870.8    0.00 
 112    7:50   0.50   70.8    13    2.1   161     5.6   870.9    0.00 
 112    8:00   0.56   70.1    13    2.6   141     7.0   870.9    0.00 
 112    8:10   0.60   71.2    13    2.2   155     6.5   870.9    0.00 
 112    8:20   0.64   71.0    13    3.7   138     8.5   870.9    0.00 
 112    8:30   0.67   70.5    13    3.1   194     7.2   871.1    0.00 
 112    8:40   0.70   71.3    13    3.8   180     6.7   871.1    0.00 
 112    8:50   0.67   70.3    14    3.9   155     9.3   871.2    0.00 
 112    9:00   0.73   70.1    14    3.0    72     6.3   871.2    0.00 
 112    9:10   0.68   70.4    14    3.0   197     7.3   871.2    0.00 
 112    9:20   0.71   71.2    14    2.5   199     6.1   871.2    0.00 
 112    9:30   0.76   72.1    13    3.7    78     7.5   871.2    0.00 
 112    9:40   0.81   72.6    13    3.8   124     8.0   871.3    0.00 
 112    9:50   0.79   73.0    13    2.4    94     4.8   871.3    0.00 
 112   10:00   0.84   73.2    13    4.2   190     7.9   871.3    0.00 
 112   10:10   0.81   73.4    13    3.5   282     6.4   871.3    0.00 
 112   10:20   0.93   74.0    13    5.5   115     9.5   871.3    0.00 
 112   10:30   0.90   73.9    12    7.2   112    11.0   871.2    0.00 
 112   10:40   0.98   74.8    12    2.7   174     5.4   871.1    0.00 
 112   10:50   0.96   76.0    12    4.0    82     8.8   871.0    0.00 
 112   11:00   0.92   75.2    12    4.7   115     7.9   870.9    0.00 
 112   11:10   0.98   75.0    12    5.0    86     8.8   870.7    0.00 
 112   11:20   0.99   75.2    12    7.0   122    12.6   870.7    0.00 
 112   11:30   0.96   75.5    12    2.8   137     8.0   870.6    0.00 
 112   11:40   0.98   75.9    12    3.6   100     8.7   870.5    0.00 
 112   11:50   0.99   75.7    12    6.2   121    11.0   870.4    0.00 
 112   12:00   1.00   76.0    12    4.1   108     8.3   870.3    0.00 
 112   12:10   1.00   75.9    12    5.4   124    14.9   870.2    0.00 
 112   12:20   0.99   76.4    12    6.2   102    11.8   870.1    0.00 
 112   12:30   0.96   76.5    12    5.5    89    10.2   870.0    0.00 
 112   12:40   0.96   76.8    11    7.5   120    16.0   869.9    0.00 
 112   12:50   0.96   76.0    12    5.7   129    12.1   869.9    0.00 
 112   13:00   0.95   76.3    11    3.4    68     9.1   869.8    0.00 
 112   13:10   0.94   77.1    11    3.7    94     9.4   869.7    0.00 
 112   13:20   0.93   77.3    11    4.0   206     8.8   869.7    0.00 
 112   13:30   0.91   78.2    11    5.1   228    11.5   869.7    0.00 
 112   13:40   0.90   78.4    11    4.3   218    11.9   869.6    0.00 
 112   13:50   0.87   78.6    11    4.6   239    15.9   869.5    0.00 
 112   14:00   0.85   79.7    10    3.5   194     9.1   869.3    0.00 
 112   14:10   0.83   80.7    10    1.4   334     4.2   869.2    0.00 
 112   14:20   0.80   79.8    10    2.9   240     9.6   869.0    0.00 
 112   14:30   0.78   78.5    10    4.8   220    10.7   868.8    0.00 
 112   14:40   0.75   78.6    11    5.4   145     9.9   868.8    0.00 
 112   14:50   0.71   78.7    10    2.6   114     7.2   868.7    0.00 
 112   15:00   0.68   78.6    10    4.9   130    11.1   868.6    0.00 
 112   15:10   0.66   78.6    10    4.4   212     9.9   868.5    0.00 
 112   15:20   0.61   78.5    10    3.4   276     7.5   868.4    0.00 
 112   15:30   0.60   79.7    10    2.4   101     6.4   868.4    0.00 
 112   15:40   0.56   79.2    10    4.3   229     8.0   868.4    0.00 
 112   15:50   0.52   78.9    10    2.5   224     8.6   868.3    0.00 
 112   16:00   0.45   78.2    10    4.5   224    11.8   868.3    0.00 
 112   16:10   0.43   78.1    10    4.0   203     8.6   868.3    0.00 
 112   16:20   0.40   77.6    11    5.4   108    10.7   868.2    0.00 
 112   16:30   0.38   77.6    11    3.6   126     9.7   868.2    0.00 
 112   16:40   0.30   78.8    10    3.1   158     7.3   868.2    0.00 
 112   16:50   0.27   77.7    11    4.4   120     9.9   868.2    0.00 
 112   17:00   0.26   77.1    11    4.2   110     8.8   868.2    0.00 
 112   17:10   0.16   76.4    11    4.2   110    10.1   868.1    0.00 
 112   17:20   0.14   75.5    11    6.0   120     8.8   868.1    0.00 
 112   17:30   0.06   74.7    12    4.3   112     6.6   868.1    0.00 
 112   17:40   0.03   73.7    12    2.4   105     6.8   868.0    0.00 
 112   17:50   0.02   72.9    12    2.0   121     4.4   867.9    0.00 
 112   18:00   0.01   72.2    13    1.3   261     2.9   867.9    0.00 
 112   18:10   0.01   70.8    14    1.9   245     3.4   867.9    0.00 
 112   18:20   0.00   68.6    16    0.7   278     2.0   867.8    0.00 
 112   18:30   0.00   67.7    16    0.2   257     2.2   867.9    0.00 
 112   18:40   0.00   65.6    18    1.4   280     2.3   867.9    0.00 
 112   18:50   0.00   67.0    16    1.1   304     2.0   867.8    0.00 
 112   19:00   0.00   65.4    18    3.0   281     3.8   867.8    0.00 
 112   19:10   0.00   64.3    18    3.6   275     4.7   867.9    0.00 
 112   19:20   0.00   64.4    18    3.6   275     4.2   867.9    0.00 
 112   19:30   0.00   63.3    19    4.1   276     4.9   868.0    0.00 
 112   19:40   0.00   64.4    18    3.5   265     4.5   868.1    0.00 
 112   19:50   0.00   65.2    17    3.7   290     4.2   868.1    0.00 
 112   20:00   0.00   62.2    20    3.7   276     4.5   868.2    0.00 
 112   20:10   0.00   59.1    23    3.6   275     4.5   868.2    0.00 
 112   20:20   0.00   60.4    21    3.7   279     4.5   868.2    0.00 
 112   20:30   0.00   62.4    20    3.6   283     4.2   868.2    0.00 
 112   20:40   0.00   58.9    23    3.5   282     4.4   868.2    0.00 
 112   20:50   0.00   63.2    18    4.3   286     4.7   868.2    0.00 
 112   21:00   0.00   59.1    23    4.1   278     5.0   868.2    0.00 
 112   21:10   0.00   59.4    22    3.7   279     4.3   868.1    0.00 
 112   21:20   0.00   60.6    21    3.8   284     4.4   868.1    0.00 
 112   21:30   0.00   58.0    24    4.3   280     4.9   868.0    0.00 
 112   21:40   0.00   58.3    23    4.0   276     4.8   867.9    0.00 
 112   21:50   0.00   57.7    24    4.4   278     5.2   867.8    0.00 
 112   22:00   0.00   59.4    22    4.3   274     5.5   867.7    0.00 
 112   22:10   0.00   61.2    20    4.1   269     5.6   867.7    0.00 
 112   22:20   0.00   62.7    18    3.4   270     4.5   867.7    0.00 
 112   22:30   0.00   62.1    19    3.6   281     4.5   867.6    0.00 
 112   22:40   0.00   61.4    20    4.3   282     5.4   867.6    0.00 
 112   22:50   0.00   56.8    25    3.8   284     4.6   867.5    0.00 
 112   23:00   0.00   58.5    22    4.3   285     5.9   867.3    0.00 
 112   23:10   0.00   60.1    21    4.4   270     5.7   867.3    0.00 
 112   23:20   0.00   59.1    22    3.3   282     5.5   867.1    0.00 
 112   23:30   0.00   60.7    20    4.6   288     6.5   867.0    0.00 
 112   23:40   0.00   59.2    22    3.9   281     5.0   866.9    0.00 
 112   23:50   0.00   57.3    24    4.7   280     5.8   866.9    0.00 
 113    0:00   0.00   57.6    24    4.1   286     4.9   866.7    0.00 
 113    0:10   0.00   58.7    23    4.2   279     5.4   866.5    0.00 
 113    0:20   0.00   59.5    22    3.4   281     4.2   866.4    0.00 
 113    0:30   0.00   56.3    26    3.6   281     4.9   866.3    0.00 
 113    0:40   0.00   60.0    21    4.7   276     5.3   866.2    0.00 
 113    0:50   0.00   57.9    24    4.2   275     5.1   866.1    0.00 
 113    1:00   0.00   56.9    24    3.7   280     4.6   865.9    0.00 
 113    1:10   0.00   57.6    24    4.1   274     4.9   865.9    0.00 
 113    1:20   0.00   57.0    24    4.6   273     5.6   866.0    0.00 
 113    1:30   0.00   59.5    22    4.0   271     5.0   865.9    0.00 
 113    1:40   0.00   57.8    24    3.1   279     4.5   865.8    0.00 
 113    1:50   0.00   54.9    28    3.7   279     5.1   865.6    0.00 
 113    2:00   0.00   57.5    25    3.9   280     4.5   865.6    0.00 
 113    2:10   0.00   55.6    28    4.3   283     5.3   865.5    0.00 
 113    2:20   0.00   55.3    28    3.9   280     5.1   865.6    0.00 
 113    2:30   0.00   58.1    25    2.2   275     4.2   865.5    0.00 
 113    2:40   0.00   57.7    27    3.5   292     5.0   865.4    0.00 
 113    2:50   0.00   57.8    28    2.1   287     3.4   865.3    0.00 
 113    3:00   0.00   55.3    32    3.4   289     4.5   865.2    0.00 
 113    3:10   0.00   54.5    33    4.5   280     5.3   865.1    0.00 
 113    3:20   0.00   54.9    32    4.9   280     5.5   865.0    0.00 
 113    3:30   0.00   55.0    33    5.0   281     6.1   864.9    0.00 
 113    3:40   0.00   55.0    33    4.3   272     5.6   864.9    0.00 
 113    3:50   0.00   55.7    32    4.4   280     5.5   864.9    0.00 
 113    4:00   0.00   56.0    32    3.8   273     4.7   864.8    0.00 
 113    4:10   0.00   56.5    33    2.7   282     5.0   864.8    0.00 
 113    4:20   0.00   57.8    31    4.1   279     5.7   864.8    0.00 
 113    4:30   0.00   56.0    33    4.8   281     6.1   864.8    0.00 
 113    4:40   0.00   57.8    30    4.5   276     5.8   864.7    0.00 
 113    4:50   0.00   56.3    32    3.6   274     5.1   864.7    0.00 
 113    5:00   0.00   57.5    30    4.0   274     5.3   864.8    0.00 
 113    5:10   0.00   57.4    30    3.1   273     4.9   864.9    0.00 
 113    5:20   0.01   58.5    29    3.4   271     4.5   865.0    0.00 
 113    5:30   0.02   58.4    30    3.6   274     5.2   865.1    0.00 
 113    5:40   0.04   61.2    27    2.4   266     4.4   865.2    0.00 
 113    5:50   0.08   62.4    26    2.0   271     3.6   865.3    0.00 
 113    6:00   0.10   64.2    24    2.3   284     3.8   865.3    0.00 

Return to Sweeney Granite Mountains graphs page.


Western Regional Climate Center,wrcc@dri.edu